createdAt,value
2019-03-17T00:02:37.253Z,3.30
2019-03-17T00:05:24.998Z,3.30
2019-03-17T00:08:12.637Z,3.20
2019-03-17T00:11:00.440Z,3.20
2019-03-17T00:13:48.362Z,3.10
2019-03-17T00:16:36.166Z,3.10
2019-03-17T00:19:23.385Z,3.10
2019-03-17T00:22:11.075Z,3.00
2019-03-17T00:25:08.499Z,3.00
2019-03-17T00:27:48.283Z,2.90
2019-03-17T00:30:35.909Z,2.90
2019-03-17T00:33:23.456Z,2.80
2019-03-17T00:36:11.160Z,2.80
2019-03-17T00:38:58.993Z,2.70
2019-03-17T00:41:46.949Z,2.60
2019-03-17T00:55:43.144Z,2.40
2019-03-17T00:58:30.706Z,2.40
2019-03-17T01:01:18.687Z,2.30
2019-03-17T01:04:06.708Z,2.30
2019-03-17T01:23:40.734Z,2.10
2019-03-17T01:26:28.553Z,2.10
2019-03-17T01:29:16.217Z,2.10
2019-03-17T01:32:03.995Z,2.10
2019-03-17T01:34:51.821Z,2.10
2019-03-17T01:37:39.457Z,2.10
2019-03-17T01:40:27.405Z,2.10
2019-03-17T01:43:15.073Z,2.10
2019-03-17T02:05:37.672Z,1.80
2019-03-17T02:08:25.639Z,1.80
2019-03-17T02:11:13.332Z,1.80
2019-03-17T02:14:00.689Z,1.80
2019-03-17T02:16:48.110Z,1.70
2019-03-17T02:19:35.727Z,1.70
2019-03-17T02:22:23.337Z,1.70
2019-03-17T02:25:11.370Z,1.60
2019-03-17T02:27:59.242Z,1.60
2019-03-17T02:30:46.989Z,1.60
2019-03-17T02:33:34.550Z,1.60
2019-03-17T02:36:22.257Z,1.50
2019-03-17T02:39:09.874Z,1.50
2019-03-17T02:41:57.231Z,1.40
2019-03-17T02:44:44.499Z,1.40
2019-03-17T02:50:21.198Z,1.30
2019-03-17T08:49:55.660Z,11.00
2019-03-17T08:52:43.466Z,11.40
2019-03-17T08:55:31.487Z,11.60
2019-03-17T08:58:19.491Z,11.70
2019-03-17T09:01:07.481Z,11.90
2019-03-17T09:03:54.752Z,12.00
2019-03-17T09:06:42.088Z,12.10
2019-03-17T09:09:29.796Z,12.30
2019-03-17T09:12:17.503Z,12.50
2019-03-17T09:15:05.517Z,12.80
2019-03-17T09:17:53.728Z,13.00
2019-03-17T09:20:41.977Z,13.20
2019-03-17T09:23:30.818Z,13.40
2019-03-17T09:26:18.651Z,13.70
2019-03-17T09:29:06.229Z,13.90
2019-03-17T09:31:53.952Z,14.00
2019-03-17T09:34:41.524Z,14.30
2019-03-17T09:37:29.073Z,14.50
2019-03-17T09:40:16.840Z,14.80
2019-03-17T09:43:04.452Z,15.00
2019-03-17T09:45:52.161Z,15.20
2019-03-17T09:48:39.797Z,15.40
2019-03-17T09:51:27.608Z,15.60
2019-03-17T09:54:15.049Z,15.80
2019-03-17T09:57:02.976Z,15.90
2019-03-17T09:59:51.042Z,16.00
2019-03-17T10:02:38.745Z,16.20
2019-03-17T10:05:26.872Z,16.50
2019-03-17T10:08:14.628Z,16.60
2019-03-17T10:11:02.790Z,16.70
2019-03-17T10:13:51.099Z,16.80
2019-03-17T10:16:39.772Z,16.90
2019-03-17T10:19:27.802Z,17.00
2019-03-17T10:22:15.429Z,17.20
2019-03-17T10:25:03.545Z,17.30
2019-03-17T10:27:51.291Z,17.40
2019-03-17T10:30:39.310Z,17.50
2019-03-17T10:33:27.873Z,17.50
2019-03-17T10:36:16.238Z,17.50
2019-03-17T10:39:12.683Z,17.50
2019-03-17T10:41:59.238Z,17.60
2019-03-17T10:44:47.138Z,17.50
2019-03-17T10:47:35.135Z,17.70
2019-03-17T10:50:23.949Z,17.70
2019-03-17T10:53:12.066Z,17.70
2019-03-17T10:56:01.365Z,17.80
2019-03-17T10:58:49.360Z,17.80
2019-03-17T11:01:37.735Z,17.80
2019-03-17T11:04:25.864Z,17.90
2019-03-17T11:07:14.124Z,18.10
2019-03-17T11:10:02.341Z,18.10
2019-03-17T11:12:50.037Z,18.20
2019-03-17T11:15:37.873Z,18.30
2019-03-17T11:18:25.945Z,18.30
2019-03-17T11:21:14.029Z,18.40
2019-03-17T11:24:01.937Z,18.50
2019-03-17T11:26:49.991Z,18.50
2019-03-17T11:29:38.259Z,18.50
2019-03-17T11:32:26.081Z,18.50
2019-03-17T11:35:14.186Z,18.50
2019-03-17T11:38:02.352Z,18.50
2019-03-17T11:40:49.919Z,18.60
2019-03-17T11:43:37.489Z,18.70
2019-03-17T11:46:25.438Z,18.80
2019-03-17T11:49:13.514Z,18.90
2019-03-17T11:52:02.238Z,19.00
2019-03-17T11:54:50.295Z,19.00
2019-03-17T11:57:41.768Z,19.00
2019-03-17T12:00:29.385Z,19.00
2019-03-17T12:03:16.755Z,19.10
2019-03-17T12:06:04.500Z,19.20
2019-03-17T12:08:52.285Z,19.10
2019-03-17T12:11:40.337Z,19.10
2019-03-17T12:14:28.165Z,19.20
2019-03-17T12:17:15.492Z,19.40
2019-03-17T12:20:03.488Z,19.40
2019-03-17T12:22:51.528Z,19.50
2019-03-17T12:25:39.230Z,19.60
2019-03-17T12:28:27.039Z,19.70
2019-03-17T12:31:14.874Z,19.80
2019-03-17T12:34:02.672Z,19.70
2019-03-17T12:36:50.895Z,19.70
2019-03-17T12:39:38.610Z,19.80
2019-03-17T12:42:26.267Z,19.90
2019-03-17T12:45:14.377Z,19.80
2019-03-17T12:48:02.142Z,19.70
2019-03-17T12:50:50.060Z,19.60
2019-03-17T12:53:37.717Z,19.50
2019-03-17T12:56:25.058Z,19.50
2019-03-17T12:59:12.711Z,19.50
2019-03-17T13:02:00.261Z,19.50
2019-03-17T13:04:48.097Z,19.60
2019-03-17T13:07:35.623Z,19.60
2019-03-17T13:10:23.619Z,19.50
2019-03-17T13:13:11.442Z,19.50
2019-03-17T13:15:59.081Z,19.30
2019-03-17T13:18:46.677Z,19.30
2019-03-17T13:21:34.701Z,19.30
2019-03-17T13:24:22.345Z,19.50
2019-03-17T13:27:10.208Z,19.50
2019-03-17T13:29:58.170Z,19.50
2019-03-17T13:32:45.974Z,19.40
2019-03-17T13:35:33.216Z,19.50
2019-03-17T13:38:20.819Z,19.60
2019-03-17T13:41:08.745Z,19.70
2019-03-17T13:43:56.293Z,19.80
2019-03-17T13:46:43.508Z,19.80
2019-03-17T13:49:31.302Z,19.80
2019-03-17T13:52:19.373Z,19.70
2019-03-17T13:55:07.117Z,19.50
2019-03-17T13:57:55.625Z,19.50
2019-03-17T14:00:43.508Z,19.40
2019-03-17T14:03:31.134Z,19.40
2019-03-17T14:06:18.827Z,19.40
2019-03-17T14:09:07.204Z,19.50
2019-03-17T14:11:55.472Z,19.50
2019-03-17T14:14:43.504Z,19.40
2019-03-17T14:17:31.200Z,19.30
2019-03-17T14:20:20.523Z,19.30
2019-03-17T14:23:08.542Z,19.30
2019-03-17T14:25:56.490Z,19.20
2019-03-17T14:28:43.754Z,19.20
2019-03-17T14:31:31.770Z,19.20
2019-03-17T14:34:19.100Z,19.10
2019-03-17T14:37:07.171Z,19.00
2019-03-17T14:39:54.966Z,18.90
2019-03-17T14:42:42.461Z,19.00
2019-03-17T14:45:30.094Z,19.10
2019-03-17T14:48:17.832Z,19.10
2019-03-17T14:51:05.480Z,19.10
2019-03-17T14:53:52.788Z,18.90
2019-03-17T14:56:40.240Z,18.70
2019-03-17T14:59:27.794Z,18.50
2019-03-17T15:02:15.735Z,18.40
2019-03-17T15:05:03.147Z,18.30
2019-03-17T15:07:51.174Z,18.20
2019-03-17T15:10:38.498Z,18.00
2019-03-17T15:13:26.501Z,17.90
2019-03-17T15:16:14.642Z,18.00
2019-03-17T15:19:02.466Z,17.80
2019-03-17T15:24:37.146Z,17.60
2019-03-17T15:27:24.447Z,17.50
2019-03-17T15:30:15.074Z,17.40
2019-03-17T15:33:02.716Z,17.20
2019-03-17T15:35:50.504Z,17.10
2019-03-17T15:38:38.133Z,17.00
2019-03-17T15:41:25.992Z,16.90
2019-03-17T15:44:13.598Z,16.60
2019-03-17T15:47:01.621Z,16.50
2019-03-17T15:49:49.192Z,16.40
2019-03-17T15:52:36.996Z,16.20
2019-03-17T15:55:24.682Z,16.10
2019-03-17T15:58:12.427Z,15.90
2019-03-17T16:01:00.339Z,15.80
2019-03-17T16:03:48.723Z,15.60
2019-03-17T16:06:36.694Z,15.60
2019-03-17T16:09:24.253Z,15.40
2019-03-17T16:12:12.237Z,15.30
2019-03-17T16:15:00.481Z,15.10
2019-03-17T16:17:48.181Z,15.00
2019-03-17T16:20:36.166Z,14.90
2019-03-17T16:23:23.833Z,14.80
2019-03-17T16:26:12.849Z,14.60
2019-03-17T16:29:00.419Z,14.50
2019-03-17T16:31:48.724Z,14.50
2019-03-17T16:34:36.453Z,14.30
2019-03-17T16:37:24.498Z,14.30
2019-03-17T16:40:13.406Z,14.30
2019-03-17T16:43:01.370Z,14.20
2019-03-17T16:45:49.209Z,14.20
2019-03-17T16:48:36.923Z,14.10
2019-03-17T16:51:24.481Z,14.10
2019-03-17T16:54:11.814Z,14.00
2019-03-17T16:56:59.561Z,13.90
2019-03-17T16:59:47.757Z,13.90
2019-03-17T17:02:35.626Z,13.80
2019-03-17T17:05:23.326Z,13.80
2019-03-17T17:08:10.714Z,13.80
2019-03-17T17:11:00.560Z,13.70
2019-03-17T17:13:47.464Z,13.60
2019-03-17T17:16:35.345Z,13.50
2019-03-17T17:19:23.055Z,13.40
2019-03-17T17:22:10.982Z,13.30
2019-03-17T17:24:58.234Z,13.20
2019-03-17T17:27:45.632Z,13.20
2019-03-17T17:30:34.088Z,13.10
2019-03-17T17:33:21.613Z,13.00
2019-03-17T17:36:09.529Z,12.50
2019-03-17T17:38:57.407Z,11.70
2019-03-17T17:41:45.415Z,11.00
2019-03-17T17:44:32.999Z,10.50
2019-03-17T17:47:21.089Z,9.90
2019-03-17T17:50:09.983Z,9.40
2019-03-17T17:52:57.668Z,8.90
2019-03-17T17:55:45.367Z,8.60
2019-03-17T17:58:33.315Z,8.30
2019-03-17T18:01:20.671Z,8.00
2019-03-17T18:04:08.724Z,7.60
2019-03-17T18:06:56.237Z,7.30
2019-03-17T18:09:43.640Z,7.10
2019-03-17T18:12:31.592Z,6.90
2019-03-17T18:15:20.864Z,6.80
2019-03-17T18:18:08.278Z,6.70
2019-03-17T18:20:55.642Z,6.60
2019-03-17T18:23:43.317Z,6.60
2019-03-17T18:26:31.371Z,6.50
2019-03-17T18:29:19.265Z,6.30
2019-03-17T18:32:06.843Z,6.30
2019-03-17T18:34:54.550Z,6.20
2019-03-17T18:37:42.338Z,6.00
2019-03-17T18:40:29.994Z,6.00
2019-03-17T18:43:17.893Z,5.90
2019-03-17T18:46:06.236Z,5.80
2019-03-17T18:48:53.958Z,5.60
2019-03-17T18:51:41.864Z,5.20
2019-03-17T18:54:29.198Z,5.10
2019-03-17T18:57:17.152Z,5.00
2019-03-17T19:00:06.054Z,5.10
2019-03-17T19:02:53.889Z,5.00
2019-03-17T19:05:41.756Z,5.00
2019-03-17T19:08:29.322Z,5.00
2019-03-17T19:11:16.759Z,5.10
2019-03-17T19:14:04.125Z,5.20
2019-03-17T19:16:51.489Z,5.00
2019-03-17T19:19:39.530Z,4.70
2019-03-17T19:22:27.569Z,4.60
2019-03-17T19:25:15.704Z,4.40
2019-03-17T19:28:03.632Z,4.30
2019-03-17T19:30:51.358Z,4.20
2019-03-17T19:33:39.188Z,4.10
2019-03-17T19:36:26.965Z,4.10
2019-03-17T19:39:14.655Z,4.10
2019-03-17T19:42:02.969Z,4.20
2019-03-17T19:44:50.450Z,4.10
2019-03-17T19:47:38.137Z,4.00
2019-03-17T19:50:25.434Z,4.00
2019-03-17T19:53:13.504Z,4.00
2019-03-17T19:56:01.093Z,4.00
2019-03-17T19:58:48.402Z,4.10
2019-03-17T20:01:36.133Z,4.20
2019-03-17T20:04:30.797Z,4.30
2019-03-17T20:07:13.122Z,4.30
2019-03-17T20:10:00.740Z,4.30
2019-03-17T20:12:48.285Z,4.30
2019-03-17T20:15:36.225Z,4.20
2019-03-17T20:18:24.208Z,4.20
2019-03-17T20:21:12.000Z,4.10
2019-03-17T20:23:59.931Z,4.00
2019-03-17T20:26:47.570Z,4.00
2019-03-17T20:29:34.920Z,4.00
2019-03-17T20:32:22.594Z,4.10
2019-03-17T20:35:11.009Z,4.10
2019-03-17T20:37:58.969Z,4.10
2019-03-17T20:40:46.324Z,4.00
2019-03-17T20:43:35.124Z,4.00
2019-03-17T20:46:22.907Z,3.90
2019-03-17T20:49:10.776Z,4.00
2019-03-17T20:51:58.274Z,3.90
2019-03-17T20:54:46.717Z,3.80
2019-03-17T20:57:34.389Z,3.80
2019-03-17T21:00:21.857Z,3.70
2019-03-17T21:03:09.496Z,3.70
2019-03-17T21:05:56.865Z,3.70
2019-03-17T21:08:44.534Z,3.70
2019-03-17T21:11:31.807Z,3.70
2019-03-17T21:14:19.128Z,3.60
2019-03-17T21:17:06.991Z,3.60
2019-03-17T21:19:54.653Z,3.60
2019-03-17T21:22:42.617Z,3.50
2019-03-17T21:25:30.531Z,3.50
2019-03-17T21:28:18.215Z,3.50
2019-03-17T21:31:05.854Z,3.50
2019-03-17T21:33:53.445Z,3.50
2019-03-17T21:36:40.981Z,3.50
2019-03-17T21:39:29.029Z,3.50
2019-03-17T21:42:17.148Z,3.50
2019-03-17T21:45:05.282Z,3.50
2019-03-17T21:47:52.893Z,3.50
2019-03-17T21:50:40.755Z,3.50
2019-03-17T21:53:28.090Z,3.50
2019-03-17T21:56:15.717Z,3.50
2019-03-17T21:59:03.504Z,3.60
2019-03-17T22:01:51.016Z,3.50
2019-03-17T22:04:39.196Z,3.60
2019-03-17T22:07:26.755Z,3.70
2019-03-17T22:10:16.434Z,3.70
2019-03-17T22:13:04.182Z,3.70
2019-03-17T22:15:51.847Z,3.70
2019-03-17T22:18:39.291Z,3.80
2019-03-17T22:21:27.434Z,3.80
2019-03-17T22:24:14.863Z,3.90
2019-03-17T22:27:02.638Z,3.90
2019-03-17T22:29:50.624Z,4.00
2019-03-17T22:32:38.215Z,4.10
2019-03-17T22:35:25.673Z,4.00
2019-03-17T22:38:13.571Z,4.00
2019-03-17T22:41:01.089Z,4.10
2019-03-17T22:43:49.014Z,4.10
2019-03-17T22:46:36.674Z,4.10
2019-03-17T22:49:24.506Z,4.20
2019-03-17T22:52:12.145Z,4.20
2019-03-17T22:55:00.118Z,4.20
2019-03-17T22:57:48.275Z,4.30
2019-03-17T23:00:41.854Z,4.40
2019-03-17T23:03:29.501Z,4.40
2019-03-17T23:06:16.964Z,4.30
2019-03-17T23:09:07.475Z,4.20
2019-03-17T23:11:54.920Z,4.20
2019-03-17T23:14:42.491Z,4.20
2019-03-17T23:17:30.257Z,4.00
2019-03-17T23:20:17.978Z,3.80
2019-03-17T23:23:05.896Z,3.80
2019-03-17T23:25:53.698Z,3.80
2019-03-17T23:28:41.060Z,3.80
2019-03-17T23:31:29.332Z,3.50
2019-03-17T23:34:17.544Z,3.40
2019-03-17T23:37:05.159Z,3.20
2019-03-17T23:39:53.391Z,3.00
2019-03-17T23:42:41.484Z,3.00
2019-03-17T23:45:29.460Z,3.10
2019-03-17T23:48:17.462Z,3.00
2019-03-17T23:51:05.635Z,2.90
2019-03-17T23:53:53.333Z,3.00
2019-03-17T23:56:41.419Z,3.10
2019-03-17T23:59:29.336Z,3.00
